Terminal Aerodrome Forecast
Issued by NWS

Home | Current Version | Previous Version | Text Only | Print | Product List | Glossary On
Versions: 1 2 3 4 5 6 7 8 9 10 11 12 13 14 15 16
000
FTUS46 KPDT 202300
TAFRDM
TAF
KRDM 202320Z 2100/2124 34011KT P6SM SKC
     FM210600 16006KT P6SM FEW100
     FM211000 16006KT P6SM FEW100 SCT200
     FM211800 34008KT P6SM SCT100 SCT180=

USA.gov is the U.S. government's official web portal to all federal, state and local government web resources and services.